KPAH Airport (Barkley Rgnl) Information

FAA: PAH - ICAO: KPAH

KPAH Airport Location

State Kentucky
County Mc Cracken
City Paducah
KPAH Airport is 12 miles west of Paducah, KY.
Latitude 37-03-37.0380N
Longitude 088-46-22.6530W
Elevation 410ft

KPAH Airport METARs

METAR KPAH 032053Z 21005KT 9SM CLR 22/08 A2992 RMK AO2 SLP129 T02220078 56015
Altimeter 29.92"
Temperature 22.2°C (72.0°F)
Wind 210° at 5KT
Clouds Skies are clear.
Visibility 9.0mi
Time observed: 2021-12-03T20:53:00Z

KPAH Airport Details

Status Operational
Activation January 1943
Ownership Public
Usage Public
Chart ST LOUIS
ATC on-site Yes
Beacon schedule sunset-sunrise
Beacon color clear green

KPAH Airport Contacts

Owner BARKLEY REGIONAL AIRPORT AUTHORITY
Owner address 2901 FISHER RD, PO BOX 38, WEST PADUCAH, KY 42086-1131
Owner phone 270-744-0521
Manager H. BRANDON
Manager address 701 SOUTH 12TH ST, MURRAY, KY 42071
Manager phone 270-753-4389

KPAH Airport (Barkley Rgnl) Radio Frequencies

KPAH (Airport) Radio Frequencies

UNICOM 122.95
Common traffic advisory frequency (CTAF) 119.6